sensor_id;sensor_type;location;lat;lon;timestamp;P1;durP1;ratioP1;P2;durP2;ratioP2
16478;SDS011;8350;52.316;10.530;2022-07-01T00:02:28;12.15;;;11.10;;
16478;SDS011;8350;52.316;10.530;2022-07-01T00:04:57;12.32;;;10.95;;
16478;SDS011;8350;52.316;10.530;2022-07-01T00:07:24;12.15;;;9.88;;
16478;SDS011;8350;52.316;10.530;2022-07-01T00:09:51;13.90;;;11.02;;
16478;SDS011;8350;52.316;10.530;2022-07-01T00:12:17;11.15;;;10.15;;
16478;SDS011;8350;52.316;10.530;2022-07-01T00:14:44;11.45;;;10.43;;
16478;SDS011;8350;52.316;10.530;2022-07-01T00:17:11;12.30;;;9.90;;
16478;SDS011;8350;52.316;10.530;2022-07-01T00:19:39;12.52;;;9.45;;
16478;SDS011;8350;52.316;10.530;2022-07-01T00:22:06;9.68;;;8.27;;
16478;SDS011;8350;52.316;10.530;2022-07-01T00:24:34;8.93;;;8.13;;
16478;SDS011;8350;52.316;10.530;2022-07-01T00:27:01;8.75;;;7.80;;
16478;SDS011;8350;52.316;10.530;2022-07-01T00:29:34;8.68;;;7.43;;
16478;SDS011;8350;52.316;10.530;2022-07-01T00:32:08;9.02;;;7.05;;
16478;SDS011;8350;52.316;10.530;2022-07-01T00:34:35;9.77;;;7.18;;
16478;SDS011;8350;52.316;10.530;2022-07-01T00:37:03;7.45;;;6.68;;
16478;SDS011;8350;52.316;10.530;2022-07-01T00:39:30;7.65;;;5.93;;
16478;SDS011;8350;52.316;10.530;2022-07-01T00:41:59;6.88;;;6.18;;
16478;SDS011;8350;52.316;10.530;2022-07-01T00:44:27;7.10;;;6.38;;
16478;SDS011;8350;52.316;10.530;2022-07-01T00:46:54;6.75;;;6.15;;
16478;SDS011;8350;52.316;10.530;2022-07-01T00:49:22;9.68;;;5.57;;
16478;SDS011;8350;52.316;10.530;2022-07-01T00:51:50;6.30;;;5.70;;
16478;SDS011;8350;52.316;10.530;2022-07-01T00:54:22;6.18;;;5.57;;
16478;SDS011;8350;52.316;10.530;2022-07-01T00:56:49;5.88;;;5.32;;
16478;SDS011;8350;52.316;10.530;2022-07-01T00:59:16;5.75;;;5.22;;
16478;SDS011;8350;52.316;10.530;2022-07-01T01:01:43;6.00;;;5.40;;
16478;SDS011;8350;52.316;10.530;2022-07-01T01:04:10;5.93;;;5.32;;
16478;SDS011;8350;52.316;10.530;2022-07-01T01:06:37;6.32;;;5.72;;
16478;SDS011;8350;52.316;10.530;2022-07-01T01:09:06;8.32;;;5.70;;
16478;SDS011;8350;52.316;10.530;2022-07-01T01:11:34;5.95;;;5.45;;
16478;SDS011;8350;52.316;10.530;2022-07-01T01:14:01;5.70;;;5.13;;
16478;SDS011;8350;52.316;10.530;2022-07-01T01:16:28;6.22;;;5.65;;
16478;SDS011;8350;52.316;10.530;2022-07-01T01:18:55;6.80;;;6.10;;
16478;SDS011;8350;52.316;10.530;2022-07-01T01:21:23;6.70;;;6.00;;
16478;SDS011;8350;52.316;10.530;2022-07-01T01:23:50;6.50;;;5.90;;
16478;SDS011;8350;52.316;10.530;2022-07-01T01:26:21;8.38;;;7.53;;
16478;SDS011;8350;52.316;10.530;2022-07-01T01:28:49;8.38;;;7.50;;
16478;SDS011;8350;52.316;10.530;2022-07-01T01:31:16;7.50;;;6.90;;
16478;SDS011;8350;52.316;10.530;2022-07-01T01:33:44;8.57;;;7.72;;
16478;SDS011;8350;52.316;10.530;2022-07-01T01:36:11;9.13;;;7.60;;
16478;SDS011;8350;52.316;10.530;2022-07-01T01:38:39;8.02;;;7.32;;
16478;SDS011;8350;52.316;10.530;2022-07-01T01:41:06;8.02;;;6.90;;
16478;SDS011;8350;52.316;10.530;2022-07-01T01:43:34;7.78;;;7.00;;
16478;SDS011;8350;52.316;10.530;2022-07-01T01:46:01;7.95;;;7.15;;
16478;SDS011;8350;52.316;10.530;2022-07-01T01:48:28;7.60;;;6.78;;
16478;SDS011;8350;52.316;10.530;2022-07-01T01:50:55;6.72;;;6.13;;
16478;SDS011;8350;52.316;10.530;2022-07-01T01:53:22;7.25;;;6.53;;
16478;SDS011;8350;52.316;10.530;2022-07-01T01:55:50;6.72;;;6.10;;
16478;SDS011;8350;52.316;10.530;2022-07-01T01:58:18;6.53;;;5.60;;
16478;SDS011;8350;52.316;10.530;2022-07-01T02:00:45;10.93;;;6.25;;
16478;SDS011;8350;52.316;10.530;2022-07-01T02:03:11;7.30;;;6.70;;
16478;SDS011;8350;52.316;10.530;2022-07-01T02:05:38;6.95;;;6.35;;
16478;SDS011;8350;52.316;10.530;2022-07-01T02:08:06;6.35;;;5.20;;
16478;SDS011;8350;52.316;10.530;2022-07-01T02:10:33;5.00;;;4.50;;
16478;SDS011;8350;52.316;10.530;2022-07-01T02:13:01;4.35;;;3.95;;
16478;SDS011;8350;52.316;10.530;2022-07-01T02:15:28;4.55;;;4.22;;
16478;SDS011;8350;52.316;10.530;2022-07-01T02:17:55;4.72;;;4.32;;
16478;SDS011;8350;52.316;10.530;2022-07-01T02:20:28;4.78;;;4.28;;
16478;SDS011;8350;52.316;10.530;2022-07-01T02:22:55;4.47;;;4.07;;
16478;SDS011;8350;52.316;10.530;2022-07-01T02:25:23;4.20;;;3.83;;
16478;SDS011;8350;52.316;10.530;2022-07-01T02:27:58;5.18;;;4.70;;
16478;SDS011;8350;52.316;10.530;2022-07-01T02:30:26;6.20;;;4.63;;
16478;SDS011;8350;52.316;10.530;2022-07-01T02:33:00;5.97;;;5.38;;
16478;SDS011;8350;52.316;10.530;2022-07-01T02:35:26;6.13;;;5.10;;
16478;SDS011;8350;52.316;10.530;2022-07-01T02:37:53;5.75;;;5.20;;
16478;SDS011;8350;52.316;10.530;2022-07-01T02:40:20;6.75;;;6.18;;
16478;SDS011;8350;52.316;10.530;2022-07-01T02:42:47;6.93;;;6.18;;
16478;SDS011;8350;52.316;10.530;2022-07-01T02:45:18;7.43;;;6.82;;
16478;SDS011;8350;52.316;10.530;2022-07-01T02:47:46;7.13;;;6.43;;
16478;SDS011;8350;52.316;10.530;2022-07-01T02:50:13;5.55;;;5.05;;
16478;SDS011;8350;52.316;10.530;2022-07-01T02:52:48;6.10;;;5.50;;
16478;SDS011;8350;52.316;10.530;2022-07-01T02:55:15;9.00;;;5.65;;
16478;SDS011;8350;52.316;10.530;2022-07-01T02:57:42;10.45;;;8.82;;
16478;SDS011;8350;52.316;10.530;2022-07-01T03:00:10;11.32;;;9.18;;
16478;SDS011;8350;52.316;10.530;2022-07-01T03:02:38;13.88;;;10.05;;
16478;SDS011;8350;52.316;10.530;2022-07-01T03:05:07;10.90;;;9.90;;
16478;SDS011;8350;52.316;10.530;2022-07-01T03:07:35;11.48;;;9.23;;
16478;SDS011;8350;52.316;10.530;2022-07-01T03:10:02;9.15;;;8.25;;
16478;SDS011;8350;52.316;10.530;2022-07-01T03:12:29;10.38;;;9.38;;
16478;SDS011;8350;52.316;10.530;2022-07-01T03:15:00;9.18;;;8.25;;
16478;SDS011;8350;52.316;10.530;2022-07-01T03:17:29;8.60;;;7.68;;
16478;SDS011;8350;52.316;10.530;2022-07-01T03:19:58;8.23;;;7.43;;
16478;SDS011;8350;52.316;10.530;2022-07-01T03:22:28;8.70;;;7.90;;
16478;SDS011;8350;52.316;10.530;2022-07-01T03:25:03;8.07;;;7.38;;
16478;SDS011;8350;52.316;10.530;2022-07-01T03:27:31;9.05;;;7.85;;
16478;SDS011;8350;52.316;10.530;2022-07-01T03:29:59;8.70;;;7.88;;
16478;SDS011;8350;52.316;10.530;2022-07-01T03:32:26;9.02;;;8.20;;
16478;SDS011;8350;52.316;10.530;2022-07-01T03:34:53;8.40;;;7.70;;
16478;SDS011;8350;52.316;10.530;2022-07-01T03:37:21;8.50;;;7.63;;
16478;SDS011;8350;52.316;10.530;2022-07-01T03:39:50;8.90;;;8.10;;
16478;SDS011;8350;52.316;10.530;2022-07-01T03:42:18;7.82;;;7.22;;
16478;SDS011;8350;52.316;10.530;2022-07-01T03:44:47;9.15;;;8.35;;
16478;SDS011;8350;52.316;10.530;2022-07-01T03:47:13;9.25;;;8.45;;
16478;SDS011;8350;52.316;10.530;2022-07-01T03:49:40;9.93;;;9.07;;
16478;SDS011;8350;52.316;10.530;2022-07-01T03:52:07;8.80;;;8.13;;
16478;SDS011;8350;52.316;10.530;2022-07-01T03:54:34;7.93;;;7.22;;
16478;SDS011;8350;52.316;10.530;2022-07-01T03:57:05;8.95;;;8.25;;
16478;SDS011;8350;52.316;10.530;2022-07-01T03:59:38;7.78;;;7.18;;
16478;SDS011;8350;52.316;10.530;2022-07-01T04:02:06;6.93;;;6.43;;
16478;SDS011;8350;52.316;10.530;2022-07-01T04:04:33;7.18;;;6.50;;
16478;SDS011;8350;52.316;10.530;2022-07-01T04:07:02;6.80;;;6.20;;
16478;SDS011;8350;52.316;10.530;2022-07-01T04:09:32;6.05;;;5.32;;
16478;SDS011;8350;52.316;10.530;2022-07-01T04:11:59;7.43;;;6.72;;
16478;SDS011;8350;52.316;10.530;2022-07-01T04:14:27;6.03;;;5.53;;
16478;SDS011;8350;52.316;10.530;2022-07-01T04:16:55;5.63;;;4.93;;
16478;SDS011;8350;52.316;10.530;2022-07-01T04:19:22;5.88;;;4.70;;
16478;SDS011;8350;52.316;10.530;2022-07-01T04:21:50;4.65;;;4.18;;
16478;SDS011;8350;52.316;10.530;2022-07-01T04:24:35;4.63;;;3.90;;
16478;SDS011;8350;52.316;10.530;2022-07-01T04:27:01;5.85;;;4.10;;
16478;SDS011;8350;52.316;10.530;2022-07-01T04:29:30;4.53;;;4.07;;
16478;SDS011;8350;52.316;10.530;2022-07-01T04:31:57;4.72;;;4.32;;
16478;SDS011;8350;52.316;10.530;2022-07-01T04:34:24;4.43;;;4.05;;
16478;SDS011;8350;52.316;10.530;2022-07-01T04:36:53;4.88;;;4.43;;
16478;SDS011;8350;52.316;10.530;2022-07-01T04:39:21;5.30;;;4.90;;
16478;SDS011;8350;52.316;10.530;2022-07-01T04:41:47;5.82;;;5.05;;
16478;SDS011;8350;52.316;10.530;2022-07-01T04:44:27;5.90;;;5.40;;
16478;SDS011;8350;52.316;10.530;2022-07-01T04:46:56;6.43;;;5.38;;
16478;SDS011;8350;52.316;10.530;2022-07-01T04:49:24;6.50;;;5.90;;
16478;SDS011;8350;52.316;10.530;2022-07-01T04:51:51;6.82;;;5.65;;
16478;SDS011;8350;52.316;10.530;2022-07-01T04:54:18;5.70;;;5.15;;
16478;SDS011;8350;52.316;10.530;2022-07-01T04:56:45;5.82;;;5.30;;
16478;SDS011;8350;52.316;10.530;2022-07-01T04:59:12;5.82;;;5.32;;
16478;SDS011;8350;52.316;10.530;2022-07-01T05:01:40;5.43;;;4.93;;
16478;SDS011;8350;52.316;10.530;2022-07-01T05:04:09;5.72;;;5.18;;
16478;SDS011;8350;52.316;10.530;2022-07-01T05:10:03;5.05;;;4.53;;
16478;SDS011;8350;52.316;10.530;2022-07-01T05:12:31;4.15;;;3.85;;
16478;SDS011;8350;52.316;10.530;2022-07-01T05:14:58;4.10;;;3.67;;
16478;SDS011;8350;52.316;10.530;2022-07-01T05:17:24;4.20;;;3.55;;
16478;SDS011;8350;52.316;10.530;2022-07-01T05:20:12;5.10;;;3.63;;
16478;SDS011;8350;52.316;10.530;2022-07-01T05:22:57;3.97;;;3.60;;
16478;SDS011;8350;52.316;10.530;2022-07-01T05:25:24;3.95;;;3.65;;
16478;SDS011;8350;52.316;10.530;2022-07-01T05:27:50;4.07;;;3.75;;
16478;SDS011;8350;52.316;10.530;2022-07-01T05:30:17;4.47;;;4.07;;
16478;SDS011;8350;52.316;10.530;2022-07-01T05:32:44;5.03;;;4.38;;
16478;SDS011;8350;52.316;10.530;2022-07-01T05:35:13;5.25;;;4.75;;
16478;SDS011;8350;52.316;10.530;2022-07-01T05:37:40;5.25;;;4.75;;
16478;SDS011;8350;52.316;10.530;2022-07-01T05:40:08;5.63;;;5.03;;
16478;SDS011;8350;52.316;10.530;2022-07-01T05:42:35;5.60;;;5.18;;
16478;SDS011;8350;52.316;10.530;2022-07-01T05:45:06;5.35;;;4.85;;
16478;SDS011;8350;52.316;10.530;2022-07-01T05:47:33;5.32;;;4.90;;
16478;SDS011;8350;52.316;10.530;2022-07-01T05:50:00;6.00;;;5.50;;
16478;SDS011;8350;52.316;10.530;2022-07-01T05:52:28;5.93;;;5.50;;
16478;SDS011;8350;52.316;10.530;2022-07-01T05:54:55;6.13;;;5.43;;
16478;SDS011;8350;52.316;10.530;2022-07-01T05:57:22;6.70;;;6.20;;
16478;SDS011;8350;52.316;10.530;2022-07-01T05:59:49;6.15;;;5.65;;
16478;SDS011;8350;52.316;10.530;2022-07-01T06:02:16;6.85;;;6.07;;
16478;SDS011;8350;52.316;10.530;2022-07-01T06:04:43;7.18;;;6.47;;
16478;SDS011;8350;52.316;10.530;2022-07-01T06:07:10;7.90;;;7.30;;
16478;SDS011;8350;52.316;10.530;2022-07-01T06:09:38;7.38;;;6.78;;
16478;SDS011;8350;52.316;10.530;2022-07-01T06:12:05;6.93;;;6.32;;
16478;SDS011;8350;52.316;10.530;2022-07-01T06:14:33;8.30;;;7.50;;
16478;SDS011;8350;52.316;10.530;2022-07-01T06:16:59;8.88;;;7.30;;
16478;SDS011;8350;52.316;10.530;2022-07-01T06:19:26;7.15;;;6.55;;
16478;SDS011;8350;52.316;10.530;2022-07-01T06:21:53;8.93;;;8.02;;
16478;SDS011;8350;52.316;10.530;2022-07-01T06:24:20;9.23;;;7.28;;
16478;SDS011;8350;52.316;10.530;2022-07-01T06:26:57;7.97;;;7.28;;
16478;SDS011;8350;52.316;10.530;2022-07-01T06:29:24;7.05;;;6.45;;
16478;SDS011;8350;52.316;10.530;2022-07-01T06:31:52;8.27;;;5.97;;
16478;SDS011;8350;52.316;10.530;2022-07-01T06:34:19;9.38;;;7.28;;
16478;SDS011;8350;52.316;10.530;2022-07-01T06:36:46;7.45;;;6.78;;
16478;SDS011;8350;52.316;10.530;2022-07-01T06:39:13;7.20;;;6.50;;
16478;SDS011;8350;52.316;10.530;2022-07-01T06:41:40;6.95;;;6.10;;
16478;SDS011;8350;52.316;10.530;2022-07-01T06:44:08;6.30;;;5.30;;
16478;SDS011;8350;52.316;10.530;2022-07-01T06:46:35;6.53;;;5.93;;
16478;SDS011;8350;52.316;10.530;2022-07-01T06:49:02;7.05;;;6.35;;
16478;SDS011;8350;52.316;10.530;2022-07-01T06:51:29;7.20;;;6.40;;
16478;SDS011;8350;52.316;10.530;2022-07-01T06:53:55;7.40;;;6.70;;
16478;SDS011;8350;52.316;10.530;2022-07-01T06:56:22;6.78;;;6.13;;
16478;SDS011;8350;52.316;10.530;2022-07-01T06:58:49;6.88;;;6.28;;
16478;SDS011;8350;52.316;10.530;2022-07-01T07:01:17;7.72;;;6.88;;
16478;SDS011;8350;52.316;10.530;2022-07-01T07:03:45;7.60;;;6.63;;
16478;SDS011;8350;52.316;10.530;2022-07-01T07:06:12;7.35;;;6.72;;
16478;SDS011;8350;52.316;10.530;2022-07-01T07:08:41;7.55;;;6.75;;
16478;SDS011;8350;52.316;10.530;2022-07-01T07:11:08;7.90;;;7.30;;
16478;SDS011;8350;52.316;10.530;2022-07-01T07:13:35;9.40;;;7.88;;
16478;SDS011;8350;52.316;10.530;2022-07-01T07:16:04;8.02;;;7.22;;
16478;SDS011;8350;52.316;10.530;2022-07-01T07:18:32;8.38;;;7.65;;
16478;SDS011;8350;52.316;10.530;2022-07-01T07:20:59;9.05;;;8.32;;
16478;SDS011;8350;52.316;10.530;2022-07-01T07:23:27;8.40;;;7.70;;
16478;SDS011;8350;52.316;10.530;2022-07-01T07:25:54;12.32;;;8.70;;
16478;SDS011;8350;52.316;10.530;2022-07-01T07:28:22;9.27;;;7.63;;
16478;SDS011;8350;52.316;10.530;2022-07-01T07:30:51;9.73;;;8.82;;
16478;SDS011;8350;52.316;10.530;2022-07-01T07:33:18;10.40;;;9.20;;
16478;SDS011;8350;52.316;10.530;2022-07-01T07:35:46;12.88;;;8.02;;
16478;SDS011;8350;52.316;10.530;2022-07-01T07:38:13;9.57;;;8.77;;
16478;SDS011;8350;52.316;10.530;2022-07-01T07:40:40;9.10;;;8.20;;
16478;SDS011;8350;52.316;10.530;2022-07-01T07:43:07;9.15;;;8.35;;
16478;SDS011;8350;52.316;10.530;2022-07-01T07:45:34;10.18;;;9.18;;
16478;SDS011;8350;52.316;10.530;2022-07-01T07:48:01;9.32;;;8.52;;
16478;SDS011;8350;52.316;10.530;2022-07-01T07:50:30;11.20;;;9.80;;
16478;SDS011;8350;52.316;10.530;2022-07-01T07:53:02;10.25;;;9.20;;
16478;SDS011;8350;52.316;10.530;2022-07-01T07:55:29;10.13;;;8.80;;
16478;SDS011;8350;52.316;10.530;2022-07-01T07:57:55;10.40;;;9.38;;
16478;SDS011;8350;52.316;10.530;2022-07-01T08:00:22;9.70;;;8.75;;
16478;SDS011;8350;52.316;10.530;2022-07-01T08:02:50;10.07;;;9.18;;
16478;SDS011;8350;52.316;10.530;2022-07-01T08:05:17;11.23;;;8.43;;
16478;SDS011;8350;52.316;10.530;2022-07-01T08:07:44;9.98;;;9.07;;
16478;SDS011;8350;52.316;10.530;2022-07-01T08:10:12;10.65;;;9.65;;
16478;SDS011;8350;52.316;10.530;2022-07-01T08:12:39;11.38;;;10.38;;
16478;SDS011;8350;52.316;10.530;2022-07-01T08:15:06;12.10;;;10.95;;
16478;SDS011;8350;52.316;10.530;2022-07-01T08:17:34;11.02;;;10.02;;
16478;SDS011;8350;52.316;10.530;2022-07-01T08:20:01;12.27;;;10.98;;
16478;SDS011;8350;52.316;10.530;2022-07-01T08:22:28;12.05;;;10.77;;
16478;SDS011;8350;52.316;10.530;2022-07-01T08:24:56;11.02;;;9.93;;
16478;SDS011;8350;52.316;10.530;2022-07-01T08:27:24;10.32;;;9.15;;
16478;SDS011;8350;52.316;10.530;2022-07-01T08:29:51;9.40;;;8.60;;
16478;SDS011;8350;52.316;10.530;2022-07-01T08:32:17;8.57;;;7.78;;
16478;SDS011;8350;52.316;10.530;2022-07-01T08:34:44;7.88;;;7.15;;
16478;SDS011;8350;52.316;10.530;2022-07-01T08:37:11;7.30;;;6.70;;
16478;SDS011;8350;52.316;10.530;2022-07-01T08:39:38;7.30;;;6.60;;
16478;SDS011;8350;52.316;10.530;2022-07-01T08:42:05;7.38;;;6.65;;
16478;SDS011;8350;52.316;10.530;2022-07-01T08:44:44;8.30;;;7.15;;
16478;SDS011;8350;52.316;10.530;2022-07-01T08:47:11;7.78;;;6.90;;
16478;SDS011;8350;52.316;10.530;2022-07-01T08:49:39;8.93;;;7.65;;
16478;SDS011;8350;52.316;10.530;2022-07-01T08:52:05;8.07;;;7.38;;
16478;SDS011;8350;52.316;10.530;2022-07-01T08:54:34;8.50;;;7.68;;
16478;SDS011;8350;52.316;10.530;2022-07-01T08:57:02;8.77;;;7.90;;
16478;SDS011;8350;52.316;10.530;2022-07-01T08:59:29;9.05;;;8.25;;
16478;SDS011;8350;52.316;10.530;2022-07-01T09:01:58;8.90;;;8.07;;
16478;SDS011;8350;52.316;10.530;2022-07-01T09:04:27;7.78;;;7.18;;
16478;SDS011;8350;52.316;10.530;2022-07-01T09:06:59;7.80;;;7.10;;
16478;SDS011;8350;52.316;10.530;2022-07-01T09:09:32;8.93;;;7.50;;
16478;SDS011;8350;52.316;10.530;2022-07-01T09:12:00;7.93;;;7.25;;
16478;SDS011;8350;52.316;10.530;2022-07-01T09:14:28;9.20;;;8.40;;
16478;SDS011;8350;52.316;10.530;2022-07-01T09:16:59;9.02;;;8.23;;
16478;SDS011;8350;52.316;10.530;2022-07-01T09:19:28;10.02;;;9.13;;
16478;SDS011;8350;52.316;10.530;2022-07-01T09:21:57;8.50;;;7.65;;
16478;SDS011;8350;52.316;10.530;2022-07-01T09:24:27;9.93;;;8.77;;
16478;SDS011;8350;52.316;10.530;2022-07-01T09:26:56;9.70;;;8.65;;
16478;SDS011;8350;52.316;10.530;2022-07-01T09:29:27;9.52;;;8.48;;
16478;SDS011;8350;52.316;10.530;2022-07-01T09:31:59;10.25;;;9.32;;
16478;SDS011;8350;52.316;10.530;2022-07-01T09:34:27;10.15;;;9.25;;
16478;SDS011;8350;52.316;10.530;2022-07-01T09:36:59;10.32;;;9.43;;
16478;SDS011;8350;52.316;10.530;2022-07-01T09:39:28;10.30;;;9.40;;
16478;SDS011;8350;52.316;10.530;2022-07-01T09:41:54;12.65;;;9.80;;
16478;SDS011;8350;52.316;10.530;2022-07-01T09:44:22;10.73;;;9.73;;
16478;SDS011;8350;52.316;10.530;2022-07-01T09:46:53;9.52;;;8.68;;
16478;SDS011;8350;52.316;10.530;2022-07-01T09:49:23;9.75;;;8.68;;
16478;SDS011;8350;52.316;10.530;2022-07-01T09:51:59;10.63;;;9.57;;
16478;SDS011;8350;52.316;10.530;2022-07-01T09:54:26;9.27;;;8.48;;
16478;SDS011;8350;52.316;10.530;2022-07-01T09:56:53;9.00;;;8.20;;
16478;SDS011;8350;52.316;10.530;2022-07-01T09:59:19;8.93;;;8.00;;
16478;SDS011;8350;52.316;10.530;2022-07-01T10:01:46;8.90;;;8.18;;
16478;SDS011;8350;52.316;10.530;2022-07-01T10:04:13;9.20;;;8.30;;
16478;SDS011;8350;52.316;10.530;2022-07-01T10:06:56;9.48;;;8.68;;
16478;SDS011;8350;52.316;10.530;2022-07-01T10:09:37;8.88;;;8.18;;
16478;SDS011;8350;52.316;10.530;2022-07-01T10:12:25;8.32;;;7.72;;
16478;SDS011;8350;52.316;10.530;2022-07-01T10:15:01;12.60;;;9.07;;
16478;SDS011;8350;52.316;10.530;2022-07-01T10:17:31;8.80;;;8.02;;
16478;SDS011;8350;52.316;10.530;2022-07-01T10:20:09;8.13;;;7.38;;
16478;SDS011;8350;52.316;10.530;2022-07-01T10:22:39;10.73;;;8.35;;
16478;SDS011;8350;52.316;10.530;2022-07-01T10:30:48;10.13;;;9.32;;
16478;SDS011;8350;52.316;10.530;2022-07-01T10:33:28;9.10;;;8.50;;
16478;SDS011;8350;52.316;10.530;2022-07-01T10:36:06;8.68;;;7.97;;
16478;SDS011;8350;52.316;10.530;2022-07-01T10:38:36;10.88;;;9.93;;
16478;SDS011;8350;52.316;10.530;2022-07-01T10:41:41;10.05;;;9.20;;
16478;SDS011;8350;52.316;10.530;2022-07-01T10:44:20;9.27;;;8.48;;
16478;SDS011;8350;52.316;10.530;2022-07-01T10:46:49;10.05;;;9.15;;
16478;SDS011;8350;52.316;10.530;2022-07-01T10:49:50;9.13;;;8.43;;
16478;SDS011;8350;52.316;10.530;2022-07-01T10:52:20;9.43;;;8.68;;
16478;SDS011;8350;52.316;10.530;2022-07-01T10:54:49;9.75;;;9.05;;
16478;SDS011;8350;52.316;10.530;2022-07-01T10:57:30;8.45;;;7.65;;
16478;SDS011;8350;52.316;10.530;2022-07-01T11:03:11;9.52;;;8.63;;
16478;SDS011;8350;52.316;10.530;2022-07-01T11:05:47;8.55;;;7.85;;
16478;SDS011;8350;52.316;10.530;2022-07-01T11:08:16;8.07;;;7.43;;
16478;SDS011;8350;52.316;10.530;2022-07-01T11:10:48;8.52;;;7.72;;
16478;SDS011;8350;52.316;10.530;2022-07-01T11:13:30;8.60;;;7.90;;
16478;SDS011;8350;52.316;10.530;2022-07-01T11:16:00;7.82;;;7.03;;
16478;SDS011;8350;52.316;10.530;2022-07-01T11:18:27;9.25;;;7.32;;
16478;SDS011;8350;52.316;10.530;2022-07-01T11:21:02;7.50;;;6.47;;
16478;SDS011;8350;52.316;10.530;2022-07-01T11:23:37;8.07;;;7.38;;
16478;SDS011;8350;52.316;10.530;2022-07-01T11:26:05;7.95;;;7.30;;
16478;SDS011;8350;52.316;10.530;2022-07-01T11:28:37;8.77;;;7.95;;
16478;SDS011;8350;52.316;10.530;2022-07-01T11:31:05;8.15;;;7.45;;
16478;SDS011;8350;52.316;10.530;2022-07-01T11:33:32;8.60;;;7.80;;
16478;SDS011;8350;52.316;10.530;2022-07-01T11:35:59;7.75;;;7.05;;
16478;SDS011;8350;52.316;10.530;2022-07-01T11:38:46;9.05;;;8.15;;
16478;SDS011;8350;52.316;10.530;2022-07-01T11:41:33;10.10;;;8.20;;
16478;SDS011;8350;52.316;10.530;2022-07-01T11:44:02;9.48;;;8.48;;
16478;SDS011;8350;52.316;10.530;2022-07-01T11:46:32;9.05;;;8.25;;
16478;SDS011;8350;52.316;10.530;2022-07-01T11:49:01;8.98;;;8.27;;
16478;SDS011;8350;52.316;10.530;2022-07-01T11:51:40;10.70;;;9.65;;
16478;SDS011;8350;52.316;10.530;2022-07-01T11:54:20;8.43;;;7.72;;
16478;SDS011;8350;52.316;10.530;2022-07-01T11:56:50;9.00;;;8.25;;
16478;SDS011;8350;52.316;10.530;2022-07-01T11:59:17;9.95;;;9.00;;
16478;SDS011;8350;52.316;10.530;2022-07-01T12:01:50;10.35;;;9.45;;
16478;SDS011;8350;52.316;10.530;2022-07-01T12:04:18;9.82;;;9.02;;
16478;SDS011;8350;52.316;10.530;2022-07-01T12:06:45;9.65;;;8.65;;
16478;SDS011;8350;52.316;10.530;2022-07-01T12:09:16;10.45;;;9.38;;
16478;SDS011;8350;52.316;10.530;2022-07-01T12:11:45;9.65;;;8.82;;
16478;SDS011;8350;52.316;10.530;2022-07-01T12:14:20;9.70;;;8.85;;
16478;SDS011;8350;52.316;10.530;2022-07-01T12:16:50;9.50;;;8.75;;
16478;SDS011;8350;52.316;10.530;2022-07-01T12:19:18;10.30;;;9.40;;
16478;SDS011;8350;52.316;10.530;2022-07-01T12:21:49;10.05;;;9.25;;
16478;SDS011;8350;52.316;10.530;2022-07-01T12:24:17;10.43;;;9.43;;
16478;SDS011;8350;52.316;10.530;2022-07-01T12:26:48;10.25;;;9.23;;
16478;SDS011;8350;52.316;10.530;2022-07-01T12:29:21;10.38;;;9.38;;
16478;SDS011;8350;52.316;10.530;2022-07-01T12:31:56;13.55;;;9.52;;
16478;SDS011;8350;52.316;10.530;2022-07-01T12:34:35;10.70;;;9.80;;
16478;SDS011;8350;52.316;10.530;2022-07-01T12:37:17;9.65;;;8.75;;
16478;SDS011;8350;52.316;10.530;2022-07-01T12:39:46;8.70;;;7.90;;
16478;SDS011;8350;52.316;10.530;2022-07-01T12:42:21;11.02;;;8.00;;
16478;SDS011;8350;52.316;10.530;2022-07-01T12:44:54;9.07;;;8.30;;
16478;SDS011;8350;52.316;10.530;2022-07-01T12:47:27;9.50;;;8.68;;
16478;SDS011;8350;52.316;10.530;2022-07-01T12:50:07;10.25;;;9.40;;
16478;SDS011;8350;52.316;10.530;2022-07-01T12:52:36;9.90;;;9.05;;
16478;SDS011;8350;52.316;10.530;2022-07-01T12:55:12;9.77;;;8.90;;
16478;SDS011;8350;52.316;10.530;2022-07-01T12:57:40;8.93;;;8.13;;
16478;SDS011;8350;52.316;10.530;2022-07-01T13:00:10;8.65;;;7.95;;
16478;SDS011;8350;52.316;10.530;2022-07-01T13:02:37;9.85;;;9.05;;
16478;SDS011;8350;52.316;10.530;2022-07-01T13:05:05;10.30;;;9.32;;
16478;SDS011;8350;52.316;10.530;2022-07-01T13:07:32;10.73;;;9.93;;
16478;SDS011;8350;52.316;10.530;2022-07-01T13:10:04;10.15;;;9.13;;
16478;SDS011;8350;52.316;10.530;2022-07-01T13:12:31;11.25;;;10.25;;
16478;SDS011;8350;52.316;10.530;2022-07-01T13:14:58;10.70;;;9.57;;
16478;SDS011;8350;52.316;10.530;2022-07-01T13:17:27;11.60;;;10.40;;
16478;SDS011;8350;52.316;10.530;2022-07-01T13:19:54;11.82;;;10.68;;
16478;SDS011;8350;52.316;10.530;2022-07-01T13:22:21;11.10;;;10.10;;
16478;SDS011;8350;52.316;10.530;2022-07-01T13:24:48;10.95;;;9.98;;
16478;SDS011;8350;52.316;10.530;2022-07-01T13:27:15;10.20;;;9.20;;
16478;SDS011;8350;52.316;10.530;2022-07-01T13:29:41;11.25;;;10.15;;
16478;SDS011;8350;52.316;10.530;2022-07-01T13:32:08;12.32;;;10.48;;
16478;SDS011;8350;52.316;10.530;2022-07-01T13:34:37;11.60;;;10.55;;
16478;SDS011;8350;52.316;10.530;2022-07-01T13:37:04;11.27;;;10.18;;
16478;SDS011;8350;52.316;10.530;2022-07-01T13:39:31;11.60;;;10.50;;
16478;SDS011;8350;52.316;10.530;2022-07-01T13:42:00;11.20;;;10.30;;
16478;SDS011;8350;52.316;10.530;2022-07-01T13:44:27;11.45;;;10.45;;
16478;SDS011;8350;52.316;10.530;2022-07-01T13:46:53;11.90;;;10.73;;
16478;SDS011;8350;52.316;10.530;2022-07-01T13:49:21;10.77;;;9.77;;
16478;SDS011;8350;52.316;10.530;2022-07-01T13:51:49;11.90;;;10.75;;
16478;SDS011;8350;52.316;10.530;2022-07-01T13:54:16;10.70;;;9.80;;
16478;SDS011;8350;52.316;10.530;2022-07-01T13:56:43;10.93;;;9.95;;
16478;SDS011;8350;52.316;10.530;2022-07-01T13:59:10;10.20;;;9.20;;
16478;SDS011;8350;52.316;10.530;2022-07-01T14:01:37;9.88;;;9.00;;
16478;SDS011;8350;52.316;10.530;2022-07-01T14:04:05;9.82;;;8.98;;
16478;SDS011;8350;52.316;10.530;2022-07-01T14:06:35;10.43;;;9.30;;
16478;SDS011;8350;52.316;10.530;2022-07-01T14:09:03;9.18;;;8.38;;
16478;SDS011;8350;52.316;10.530;2022-07-01T14:11:33;8.13;;;7.43;;
16478;SDS011;8350;52.316;10.530;2022-07-01T14:13:59;8.02;;;7.25;;
16478;SDS011;8350;52.316;10.530;2022-07-01T14:16:30;7.15;;;6.47;;
16478;SDS011;8350;52.316;10.530;2022-07-01T14:18:57;7.13;;;6.43;;
16478;SDS011;8350;52.316;10.530;2022-07-01T14:21:24;7.05;;;6.38;;
16478;SDS011;8350;52.316;10.530;2022-07-01T14:23:51;7.65;;;5.88;;
16478;SDS011;8350;52.316;10.530;2022-07-01T14:26:22;5.65;;;5.20;;
16478;SDS011;8350;52.316;10.530;2022-07-01T14:28:52;7.88;;;5.38;;
16478;SDS011;8350;52.316;10.530;2022-07-01T14:31:19;5.93;;;4.75;;
16478;SDS011;8350;52.316;10.530;2022-07-01T14:33:46;4.65;;;4.00;;
16478;SDS011;8350;52.316;10.530;2022-07-01T14:36:13;5.43;;;4.30;;
16478;SDS011;8350;52.316;10.530;2022-07-01T14:38:40;4.75;;;3.72;;
16478;SDS011;8350;52.316;10.530;2022-07-01T14:41:07;4.57;;;4.07;;
16478;SDS011;8350;52.316;10.530;2022-07-01T14:43:35;6.32;;;3.80;;
16478;SDS011;8350;52.316;10.530;2022-07-01T14:46:04;4.15;;;3.75;;
16478;SDS011;8350;52.316;10.530;2022-07-01T14:48:34;4.55;;;3.63;;
16478;SDS011;8350;52.316;10.530;2022-07-01T14:51:03;4.20;;;3.80;;
16478;SDS011;8350;52.316;10.530;2022-07-01T14:53:32;3.65;;;3.35;;
16478;SDS011;8350;52.316;10.530;2022-07-01T14:55:59;4.10;;;3.80;;
16478;SDS011;8350;52.316;10.530;2022-07-01T14:58:27;3.58;;;3.20;;
16478;SDS011;8350;52.316;10.530;2022-07-01T15:00:55;4.07;;;3.67;;
16478;SDS011;8350;52.316;10.530;2022-07-01T15:03:22;5.38;;;3.72;;
16478;SDS011;8350;52.316;10.530;2022-07-01T15:05:48;3.90;;;3.50;;
16478;SDS011;8350;52.316;10.530;2022-07-01T15:08:15;3.72;;;3.42;;